createdAt,value
2017-04-26T00:00:35.817Z,3.75
2017-04-26T00:01:35.002Z,7.90
2017-04-26T00:02:34.258Z,4.85
2017-04-26T00:03:33.854Z,3.87
2017-04-26T00:04:33.118Z,5.72
2017-04-26T00:05:32.307Z,6.00
2017-04-26T00:06:31.753Z,5.80
2017-04-26T00:07:30.890Z,5.45
2017-04-26T00:08:30.830Z,5.22
2017-04-26T00:09:30.062Z,5.37
2017-04-26T00:10:29.206Z,6.43
2017-04-26T00:11:28.546Z,7.32
2017-04-26T00:12:27.769Z,6.80
2017-04-26T00:13:26.980Z,5.35
2017-04-26T00:14:26.170Z,6.95
2017-04-26T00:15:27.223Z,8.53
2017-04-26T00:16:26.452Z,5.08
2017-04-26T00:17:26.614Z,4.08
2017-04-26T00:18:25.925Z,4.08
2017-04-26T00:19:25.156Z,6.38
2017-04-26T00:20:24.393Z,5.65
2017-04-26T00:21:23.555Z,8.50
2017-04-26T00:22:22.758Z,7.42
2017-04-26T00:23:21.978Z,10.40
2017-04-26T00:24:21.933Z,8.58
2017-04-26T00:25:21.129Z,7.25
2017-04-26T00:26:20.357Z,6.57
2017-04-26T00:27:19.540Z,8.82
2017-04-26T00:28:19.457Z,4.95
2017-04-26T00:29:19.405Z,6.77
2017-04-26T00:30:18.661Z,7.22
2017-04-26T00:31:17.876Z,10.02
2017-04-26T00:32:17.167Z,5.57
2017-04-26T00:33:16.410Z,8.02
2017-04-26T00:34:15.668Z,8.98
2017-04-26T00:35:14.977Z,5.43
2017-04-26T00:36:14.176Z,5.70
2017-04-26T00:37:14.132Z,7.45
2017-04-26T00:38:13.314Z,4.53
2017-04-26T00:39:12.561Z,7.08
2017-04-26T00:40:12.510Z,8.43
2017-04-26T00:41:11.804Z,8.68
2017-04-26T00:42:10.977Z,5.23
2017-04-26T00:43:10.166Z,8.40
2017-04-26T00:44:09.369Z,5.00
2017-04-26T00:45:08.604Z,4.77
2017-04-26T00:46:08.613Z,8.62
2017-04-26T00:47:08.558Z,8.35
2017-04-26T00:48:07.760Z,7.33
2017-04-26T00:49:06.968Z,8.12
2017-04-26T00:50:06.241Z,5.13
2017-04-26T00:51:05.514Z,8.73
2017-04-26T00:52:04.840Z,8.10
2017-04-26T00:53:04.017Z,5.95
2017-04-26T00:54:03.221Z,6.27
2017-04-26T00:55:03.260Z,8.50
2017-04-26T00:56:02.428Z,4.65
2017-04-26T00:57:02.368Z,6.70
2017-04-26T00:58:01.643Z,8.63
2017-04-26T00:59:00.925Z,8.12
2017-04-26T01:00:00.106Z,8.82
2017-04-26T01:01:00.048Z,6.45
2017-04-26T01:01:59.224Z,8.12
2017-04-26T01:02:58.517Z,6.32
2017-04-26T01:03:57.649Z,10.83
2017-04-26T01:04:57.318Z,6.05
2017-04-26T01:05:56.493Z,7.55
2017-04-26T01:06:55.738Z,11.80
2017-04-26T01:07:55.678Z,8.15
2017-04-26T01:08:54.984Z,9.83
2017-04-26T01:09:54.151Z,9.42
2017-04-26T01:10:53.397Z,6.67
2017-04-26T01:11:52.669Z,9.67
2017-04-26T01:12:51.905Z,5.95
2017-04-26T01:13:51.078Z,5.18
2017-04-26T01:14:51.021Z,7.22
2017-04-26T01:15:50.366Z,8.90
2017-04-26T01:16:50.277Z,6.22
2017-04-26T01:17:50.262Z,10.55
2017-04-26T01:18:49.726Z,8.35
2017-04-26T01:19:48.860Z,8.48
2017-04-26T01:20:48.125Z,6.50
2017-04-26T01:21:47.353Z,6.35
2017-04-26T01:22:46.512Z,10.33
2017-04-26T01:23:45.733Z,6.98
2017-04-26T01:24:44.888Z,7.95
2017-04-26T01:25:44.022Z,9.80
2017-04-26T01:26:43.485Z,10.17
2017-04-26T01:27:43.468Z,8.93
2017-04-26T01:28:42.780Z,5.85
2017-04-26T01:29:42.734Z,8.68
2017-04-26T01:30:42.048Z,6.47
2017-04-26T01:31:41.236Z,5.92
2017-04-26T01:32:40.483Z,10.87
2017-04-26T01:33:39.671Z,6.17
2017-04-26T01:34:38.865Z,7.22
2017-04-26T01:35:38.044Z,6.72
2017-04-26T01:36:37.232Z,5.10
2017-04-26T01:37:36.680Z,6.07
2017-04-26T01:38:36.590Z,7.48
2017-04-26T01:39:36.500Z,8.85
2017-04-26T01:40:36.445Z,8.45
2017-04-26T01:41:35.620Z,5.77
2017-04-26T01:42:34.797Z,7.72
2017-04-26T01:43:34.362Z,7.43
2017-04-26T01:44:34.333Z,5.67
2017-04-26T01:45:33.540Z,8.47
2017-04-26T01:46:32.726Z,7.60
2017-04-26T01:47:31.933Z,7.35
2017-04-26T01:48:32.013Z,9.35
2017-04-26T01:49:31.567Z,5.15
2017-04-26T01:50:30.749Z,6.13
2017-04-26T01:51:29.990Z,7.65
2017-04-26T01:52:30.008Z,5.53
2017-04-26T01:53:29.262Z,7.55
2017-04-26T01:54:28.501Z,3.75
2017-04-26T01:55:28.600Z,6.02
2017-04-26T01:56:28.547Z,9.13
2017-04-26T01:57:27.744Z,9.32
2017-04-26T01:58:26.918Z,5.08
2017-04-26T01:59:26.156Z,7.00
2017-04-26T02:00:25.333Z,7.27
2017-04-26T02:01:24.651Z,10.20
2017-04-26T02:02:23.894Z,5.97
2017-04-26T02:03:23.204Z,8.07
2017-04-26T02:04:22.500Z,6.18
2017-04-26T02:05:21.798Z,12.40
2017-04-26T02:06:21.753Z,15.15
2017-04-26T02:07:21.018Z,14.05
2017-04-26T02:08:20.913Z,9.77
2017-04-26T02:09:21.241Z,7.38
2017-04-26T02:10:20.479Z,11.60
2017-04-26T02:11:19.725Z,5.80
2017-04-26T02:12:18.909Z,8.18
2017-04-26T02:13:18.159Z,9.05
2017-04-26T02:14:17.389Z,6.00
2017-04-26T02:15:16.689Z,9.30
2017-04-26T02:16:15.856Z,10.20
2017-04-26T02:17:15.230Z,6.93
2017-04-26T02:18:15.172Z,11.48
2017-04-26T02:19:14.379Z,7.97
2017-04-26T02:20:13.578Z,13.27
2017-04-26T02:21:12.821Z,7.10
2017-04-26T02:22:12.265Z,10.13
2017-04-26T02:23:11.479Z,12.60
2017-04-26T02:24:11.403Z,8.48
2017-04-26T02:25:10.761Z,11.82
2017-04-26T02:26:09.982Z,8.22
2017-04-26T02:27:09.224Z,10.78
2017-04-26T02:28:09.233Z,10.07
2017-04-26T02:29:08.502Z,9.00
2017-04-26T02:30:07.666Z,6.88
2017-04-26T02:31:06.853Z,5.58
2017-04-26T02:32:06.049Z,8.22
2017-04-26T02:33:05.214Z,9.35
2017-04-26T02:34:04.448Z,6.42
2017-04-26T02:35:03.709Z,5.65
2017-04-26T02:36:02.878Z,8.25
2017-04-26T02:37:02.070Z,6.48
2017-04-26T02:38:01.278Z,6.32
2017-04-26T02:39:00.460Z,5.50
2017-04-26T02:39:59.639Z,8.82
2017-04-26T02:40:58.840Z,8.85
2017-04-26T02:41:58.090Z,5.78
2017-04-26T02:42:57.251Z,6.83
2017-04-26T02:43:56.502Z,11.02
2017-04-26T02:44:55.682Z,8.48
2017-04-26T02:45:54.846Z,8.92
2017-04-26T02:46:53.960Z,6.77
2017-04-26T02:47:53.238Z,8.33
2017-04-26T02:48:52.457Z,8.37
2017-04-26T02:49:51.644Z,9.45
2017-04-26T02:50:50.933Z,7.57
2017-04-26T02:51:50.157Z,9.72
2017-04-26T02:52:49.373Z,6.28
2017-04-26T02:53:48.599Z,6.45
2017-04-26T02:54:47.809Z,4.62
2017-04-26T02:55:47.004Z,7.60
2017-04-26T02:56:46.193Z,7.05
2017-04-26T02:57:45.313Z,8.83
2017-04-26T02:58:44.517Z,9.70
2017-04-26T02:59:43.894Z,7.80
2017-04-26T03:00:43.064Z,6.10
2017-04-26T03:01:42.232Z,7.77
2017-04-26T03:02:42.259Z,8.40
2017-04-26T03:03:41.504Z,7.42
2017-04-26T03:04:40.686Z,9.37
2017-04-26T03:05:39.931Z,6.25
2017-04-26T03:06:39.130Z,8.17
2017-04-26T03:07:38.341Z,6.92
2017-04-26T03:08:37.582Z,6.50
2017-04-26T03:09:36.873Z,5.93
2017-04-26T03:10:36.047Z,7.83
2017-04-26T03:11:35.232Z,8.72
2017-04-26T03:12:34.439Z,6.12
2017-04-26T03:13:33.609Z,8.30
2017-04-26T03:14:33.616Z,13.48
2017-04-26T03:15:33.329Z,8.03
2017-04-26T03:16:32.508Z,8.50
2017-04-26T03:17:31.675Z,7.38
2017-04-26T03:18:30.877Z,9.80
2017-04-26T03:19:30.088Z,7.00
2017-04-26T03:20:29.249Z,9.50
2017-04-26T03:21:29.209Z,12.50
2017-04-26T03:22:28.650Z,9.88
2017-04-26T03:23:28.693Z,10.32
2017-04-26T03:24:27.873Z,10.17
2017-04-26T03:25:27.202Z,6.63
2017-04-26T03:26:26.350Z,9.30
2017-04-26T03:27:25.552Z,9.93
2017-04-26T03:28:24.760Z,10.40
2017-04-26T03:29:24.274Z,5.67
2017-04-26T03:30:23.514Z,7.32
2017-04-26T03:31:22.841Z,8.18
2017-04-26T03:32:22.008Z,9.07
2017-04-26T03:33:21.231Z,7.77
2017-04-26T03:34:21.160Z,11.25
2017-04-26T03:35:20.370Z,11.10
2017-04-26T03:36:19.619Z,8.95
2017-04-26T03:37:18.950Z,11.98
2017-04-26T03:38:18.214Z,10.30
2017-04-26T03:39:17.458Z,10.75
2017-04-26T03:40:16.689Z,10.17
2017-04-26T03:41:15.941Z,7.67
2017-04-26T03:42:15.173Z,7.88
2017-04-26T03:43:14.389Z,6.35
2017-04-26T03:44:13.598Z,8.42
2017-04-26T03:45:12.948Z,7.70
2017-04-26T03:46:12.200Z,8.42
2017-04-26T03:47:11.466Z,7.30
2017-04-26T03:48:10.633Z,10.98
2017-04-26T03:49:09.850Z,9.55
2017-04-26T03:50:09.009Z,8.47
2017-04-26T03:51:08.279Z,8.68
2017-04-26T03:52:07.545Z,9.83
2017-04-26T03:53:06.737Z,6.12
2017-04-26T03:54:05.949Z,6.37
2017-04-26T03:55:05.164Z,5.87
2017-04-26T03:56:04.361Z,8.62
2017-04-26T03:57:03.590Z,7.65
2017-04-26T03:58:02.784Z,7.28
2017-04-26T03:59:02.001Z,5.77
2017-04-26T04:00:01.220Z,7.95
2017-04-26T04:01:00.393Z,7.68
2017-04-26T04:01:59.583Z,5.10
2017-04-26T04:02:58.775Z,7.03
2017-04-26T04:03:58.041Z,9.10
2017-04-26T04:04:57.322Z,8.37
2017-04-26T04:05:56.547Z,9.40
2017-04-26T04:06:55.742Z,6.87
2017-04-26T04:07:55.738Z,12.60
2017-04-26T04:08:54.969Z,8.68
2017-04-26T04:09:54.209Z,9.73
2017-04-26T04:10:53.796Z,5.32
2017-04-26T04:11:53.828Z,10.47
2017-04-26T04:12:53.015Z,9.62
2017-04-26T04:13:52.197Z,9.47
2017-04-26T04:14:51.349Z,9.33
2017-04-26T04:15:51.493Z,8.58
2017-04-26T04:16:50.673Z,14.15
2017-04-26T04:17:49.942Z,10.63
2017-04-26T04:18:49.506Z,11.35
2017-04-26T04:19:48.723Z,16.07
2017-04-26T04:20:48.012Z,12.15
2017-04-26T04:21:47.296Z,12.90
2017-04-26T04:22:46.456Z,15.55
2017-04-26T04:23:45.644Z,10.47
2017-04-26T04:24:44.998Z,11.72
2017-04-26T04:25:44.193Z,13.13
2017-04-26T04:26:44.073Z,8.55
2017-04-26T04:27:43.369Z,9.58
2017-04-26T04:28:42.853Z,11.65
2017-04-26T04:29:42.122Z,8.30
2017-04-26T04:30:41.340Z,11.92
2017-04-26T04:31:40.648Z,11.97
2017-04-26T04:32:40.613Z,10.52
2017-04-26T04:33:39.821Z,10.00
2017-04-26T04:34:39.045Z,10.02
2017-04-26T04:35:38.248Z,11.05
2017-04-26T04:36:37.434Z,10.32
2017-04-26T04:37:36.630Z,11.77
2017-04-26T04:38:35.881Z,8.62
2017-04-26T04:39:36.372Z,10.43
2017-04-26T04:40:35.604Z,6.90
2017-04-26T04:41:34.804Z,10.35
2017-04-26T04:42:34.147Z,9.08
2017-04-26T04:43:33.475Z,9.35
2017-04-26T04:44:32.632Z,9.82
2017-04-26T04:45:32.013Z,8.92
2017-04-26T04:46:31.189Z,9.60
2017-04-26T04:47:30.366Z,9.52
2017-04-26T04:48:30.335Z,7.10
2017-04-26T04:49:29.518Z,11.15
2017-04-26T04:50:28.794Z,9.08
2017-04-26T04:51:28.751Z,12.08
2017-04-26T04:52:27.880Z,11.95
2017-04-26T04:53:27.779Z,10.03
2017-04-26T04:54:27.001Z,9.28
2017-04-26T04:55:26.144Z,12.42
2017-04-26T04:56:25.383Z,9.85
2017-04-26T04:57:24.560Z,10.95
2017-04-26T04:58:23.753Z,9.15
2017-04-26T04:59:22.899Z,8.32
2017-04-26T05:00:28.420Z,10.22
2017-04-26T05:01:28.026Z,9.80
2017-04-26T05:02:27.213Z,9.57
2017-04-26T05:03:26.387Z,11.23
2017-04-26T05:04:25.621Z,9.30
2017-04-26T05:05:24.804Z,7.62
2017-04-26T05:06:23.993Z,15.15
2017-04-26T05:07:23.665Z,8.68
2017-04-26T05:08:22.899Z,9.30
2017-04-26T05:09:22.138Z,8.75
2017-04-26T05:10:21.519Z,10.95
2017-04-26T05:11:20.654Z,12.63
2017-04-26T05:12:19.894Z,8.62
2017-04-26T05:13:20.055Z,10.40
2017-04-26T05:14:19.216Z,13.28
2017-04-26T05:15:24.008Z,9.85
2017-04-26T05:16:23.397Z,14.55
2017-04-26T05:17:32.701Z,12.68
2017-04-26T05:18:31.910Z,10.03
2017-04-26T05:19:31.087Z,8.35
2017-04-26T05:20:30.356Z,12.12
2017-04-26T05:21:29.653Z,9.32
2017-04-26T05:22:28.913Z,13.35
2017-04-26T05:23:28.125Z,9.75
2017-04-26T05:24:27.357Z,6.42
2017-04-26T05:25:26.592Z,11.13
2017-04-26T05:26:25.781Z,10.68
2017-04-26T05:27:25.070Z,8.78
2017-04-26T05:28:24.366Z,8.78
2017-04-26T05:29:23.576Z,10.08
2017-04-26T05:30:22.777Z,8.80
2017-04-26T05:31:21.981Z,9.32
2017-04-26T05:32:21.184Z,7.72
2017-04-26T05:33:20.372Z,9.28
2017-04-26T05:34:19.546Z,8.58
2017-04-26T05:35:19.528Z,10.62
2017-04-26T05:36:18.733Z,9.48
2017-04-26T05:37:18.857Z,10.67
2017-04-26T05:38:18.801Z,11.52
2017-04-26T05:39:18.046Z,12.40
2017-04-26T05:40:18.041Z,12.82
2017-04-26T05:41:17.237Z,12.28
2017-04-26T05:42:16.508Z,10.07
2017-04-26T05:43:15.739Z,11.30
2017-04-26T05:44:15.015Z,10.07
2017-04-26T05:45:14.229Z,7.48
2017-04-26T05:46:13.452Z,10.15
2017-04-26T05:47:12.728Z,8.08
2017-04-26T05:48:12.134Z,9.07
2017-04-26T05:49:11.371Z,9.78
2017-04-26T05:50:10.668Z,9.10
2017-04-26T05:51:09.873Z,10.03
2017-04-26T05:52:09.191Z,6.25
2017-04-26T05:53:08.421Z,12.60
2017-04-26T05:54:07.593Z,11.98
2017-04-26T05:55:07.571Z,8.80
2017-04-26T05:56:06.941Z,9.25
2017-04-26T05:57:06.181Z,13.30
2017-04-26T05:58:06.109Z,10.30
2017-04-26T05:59:05.298Z,8.25
2017-04-26T06:00:04.489Z,10.58
2017-04-26T06:01:03.721Z,10.92
2017-04-26T06:02:02.976Z,12.12
2017-04-26T06:03:02.293Z,7.90
2017-04-26T06:04:02.231Z,7.17
2017-04-26T06:05:02.157Z,6.83
2017-04-26T06:06:01.319Z,6.10
2017-04-26T06:07:01.321Z,9.98
2017-04-26T06:08:01.278Z,9.07
2017-04-26T06:09:00.445Z,12.33
2017-04-26T06:09:59.587Z,11.40
2017-04-26T06:10:58.761Z,6.20
2017-04-26T06:11:57.994Z,8.42
2017-04-26T06:12:57.166Z,12.70
2017-04-26T06:13:57.155Z,6.63
2017-04-26T06:14:56.379Z,8.08
2017-04-26T06:15:55.573Z,8.93
2017-04-26T06:16:54.816Z,5.87
2017-04-26T06:17:54.156Z,7.88
2017-04-26T06:18:53.480Z,7.68
2017-04-26T06:19:53.281Z,7.78
2017-04-26T06:20:53.283Z,7.52
2017-04-26T06:21:52.728Z,5.90
2017-04-26T06:22:52.791Z,7.07
2017-04-26T06:23:51.999Z,12.55
2017-04-26T06:24:51.264Z,7.87
2017-04-26T06:25:50.646Z,9.13
2017-04-26T06:26:50.149Z,9.62
2017-04-26T06:27:49.390Z,8.12
2017-04-26T06:28:49.012Z,5.90
2017-04-26T06:29:48.288Z,11.52
2017-04-26T06:30:47.537Z,7.22
2017-04-26T06:31:46.821Z,10.48
2017-04-26T06:32:46.078Z,7.88
2017-04-26T06:33:45.354Z,5.67
2017-04-26T06:34:44.605Z,9.38
2017-04-26T06:35:44.919Z,7.77
2017-04-26T06:36:44.929Z,6.28
2017-04-26T06:37:44.206Z,8.35
2017-04-26T06:38:43.475Z,7.10
2017-04-26T06:39:42.690Z,7.20
2017-04-26T06:40:42.696Z,9.30
2017-04-26T06:41:42.715Z,9.20
2017-04-26T06:42:42.707Z,8.37
2017-04-26T06:43:43.399Z,6.20
2017-04-26T06:44:42.697Z,7.22
2017-04-26T06:45:41.885Z,6.75
2017-04-26T06:46:41.112Z,8.32
2017-04-26T06:47:40.383Z,7.43
2017-04-26T06:48:40.809Z,12.40
2017-04-26T06:49:40.115Z,6.23
2017-04-26T06:50:39.332Z,8.17
2017-04-26T06:51:38.673Z,6.43
2017-04-26T06:52:37.962Z,7.03
2017-04-26T06:53:38.065Z,6.68
2017-04-26T06:54:38.102Z,6.60
2017-04-26T06:55:37.298Z,5.65
2017-04-26T06:56:36.661Z,9.77
2017-04-26T06:57:36.693Z,8.55
2017-04-26T06:58:35.929Z,7.80
2017-04-26T06:59:36.616Z,7.15
2017-04-26T07:00:35.851Z,7.78
2017-04-26T07:01:35.889Z,6.85
2017-04-26T07:02:35.889Z,9.53
2017-04-26T07:03:35.151Z,7.55
2017-04-26T07:04:35.378Z,8.95
2017-04-26T07:05:35.708Z,6.38
2017-04-26T07:06:35.035Z,10.30
2017-04-26T07:07:34.842Z,8.65
2017-04-26T07:08:34.166Z,7.98
2017-04-26T07:09:33.366Z,7.20
2017-04-26T07:10:33.087Z,5.75
2017-04-26T07:11:33.029Z,9.65
2017-04-26T07:12:33.090Z,6.53
2017-04-26T07:13:34.468Z,5.98
2017-04-26T07:14:33.685Z,9.43
2017-04-26T07:15:33.513Z,7.43
2017-04-26T07:16:33.663Z,6.30
2017-04-26T07:17:33.591Z,7.33
2017-04-26T07:18:32.952Z,7.72
2017-04-26T07:19:32.225Z,6.33
2017-04-26T07:20:31.585Z,6.13
2017-04-26T07:21:31.839Z,7.52
2017-04-26T07:22:31.241Z,10.38
2017-04-26T07:23:30.481Z,6.22
2017-04-26T07:24:30.448Z,5.83
2017-04-26T07:25:29.763Z,5.07
2017-04-26T07:26:29.034Z,4.82
2017-04-26T07:27:28.289Z,5.28
2017-04-26T07:28:27.590Z,9.43
2017-04-26T07:29:26.905Z,6.80
2017-04-26T07:30:26.261Z,4.87
2017-04-26T07:31:25.666Z,4.77
2017-04-26T07:32:26.549Z,3.50
2017-04-26T07:33:25.921Z,4.67
2017-04-26T07:34:25.232Z,5.45
2017-04-26T07:35:24.522Z,5.90
2017-04-26T07:36:24.989Z,7.45
2017-04-26T07:37:24.197Z,4.32
2017-04-26T07:38:23.819Z,3.63
2017-04-26T07:39:23.088Z,4.00
2017-04-26T07:40:22.772Z,10.62
2017-04-26T07:41:22.876Z,7.65
2017-04-26T07:42:22.300Z,4.43
2017-04-26T07:43:22.897Z,4.62
2017-04-26T07:44:22.253Z,2.65
2017-04-26T07:45:21.572Z,3.70
2017-04-26T07:46:21.023Z,4.63
2017-04-26T07:47:20.313Z,5.03
2017-04-26T07:48:20.178Z,6.93
2017-04-26T07:49:19.478Z,6.12
2017-04-26T07:50:18.737Z,6.43
2017-04-26T07:51:18.173Z,7.98
2017-04-26T07:52:17.841Z,5.90
2017-04-26T07:53:17.189Z,7.73
2017-04-26T07:54:16.573Z,7.90
2017-04-26T07:55:22.241Z,4.51
2017-04-26T07:56:21.606Z,4.33
2017-04-26T07:57:21.110Z,6.10
2017-04-26T07:58:20.616Z,4.98
2017-04-26T07:59:20.265Z,10.20
2017-04-26T08:00:20.429Z,4.90
2017-04-26T08:01:21.639Z,6.67
2017-04-26T08:02:21.668Z,3.35
2017-04-26T08:03:21.335Z,7.18
2017-04-26T08:04:21.845Z,4.03
2017-04-26T08:05:22.035Z,4.58
2017-04-26T08:06:22.932Z,4.26
2017-04-26T08:07:22.386Z,5.43
2017-04-26T08:08:21.779Z,3.80
2017-04-26T08:09:21.124Z,9.88
2017-04-26T08:10:20.481Z,4.45
2017-04-26T08:11:19.835Z,3.97
2017-04-26T08:12:20.625Z,7.00
2017-04-26T08:13:19.835Z,6.67
2017-04-26T08:14:19.983Z,4.15
2017-04-26T08:15:19.285Z,4.57
2017-04-26T08:16:28.771Z,3.27
2017-04-26T08:17:29.616Z,3.30
2017-04-26T08:18:30.067Z,4.30
2017-04-26T08:19:29.343Z,5.82
2017-04-26T08:20:28.707Z,5.60
2017-04-26T08:21:28.742Z,4.70
2017-04-26T08:22:28.492Z,7.77
2017-04-26T08:23:32.798Z,4.93
2017-04-26T08:24:32.232Z,8.17
2017-04-26T08:25:32.225Z,3.63
2017-04-26T08:26:31.574Z,3.03
2017-04-26T08:27:30.941Z,3.27
2017-04-26T08:28:30.784Z,3.26
2017-04-26T08:29:32.086Z,2.63
2017-04-26T08:30:31.705Z,4.98
2017-04-26T08:31:34.672Z,2.25
2017-04-26T08:32:34.850Z,4.45
2017-04-26T08:33:34.611Z,5.56
2017-04-26T08:34:34.755Z,7.03
2017-04-26T08:35:34.093Z,3.65
2017-04-26T08:36:33.544Z,5.43
2017-04-26T08:37:32.947Z,4.37
2017-04-26T08:38:33.208Z,4.96
2017-04-26T08:39:32.798Z,2.38
2017-04-26T08:40:33.966Z,3.52
2017-04-26T08:41:33.308Z,3.73
2017-04-26T08:42:32.895Z,3.05
2017-04-26T08:43:35.978Z,3.47
2017-04-26T08:44:35.525Z,2.73
2017-04-26T08:45:35.214Z,5.25
2017-04-26T08:46:34.665Z,3.49
2017-04-26T08:47:39.565Z,5.55
2017-04-26T08:48:38.947Z,2.83
2017-04-26T08:49:39.321Z,3.49
2017-04-26T08:50:39.471Z,2.89
2017-04-26T08:51:39.221Z,2.71
2017-04-26T08:52:39.278Z,3.20
2017-04-26T08:53:39.406Z,6.03
2017-04-26T08:54:39.634Z,3.25
2017-04-26T08:55:38.944Z,4.85
2017-04-26T08:56:49.513Z,4.86
2017-04-26T08:57:51.305Z,6.48
2017-04-26T08:58:52.094Z,3.97
2017-04-26T08:59:52.853Z,5.32
2017-04-26T09:00:52.386Z,4.92
2017-04-26T09:01:52.913Z,8.68
2017-04-26T09:02:53.302Z,3.68
2017-04-26T09:05:04.678Z,5.47
2017-04-26T09:06:10.486Z,6.92
2017-04-26T09:07:10.722Z,4.20
2017-04-26T09:08:10.328Z,8.17
2017-04-26T09:09:10.412Z,7.23
2017-04-26T09:10:09.957Z,5.82
2017-04-26T09:11:16.980Z,5.05
2017-04-26T09:12:19.957Z,5.72
2017-04-26T09:13:19.426Z,5.00
2017-04-26T09:14:18.683Z,5.97
2017-04-26T09:15:19.608Z,4.35
2017-04-26T09:16:19.916Z,5.47
2017-04-26T09:17:19.732Z,8.71
2017-04-26T09:18:19.981Z,4.49
2017-04-26T09:19:20.260Z,4.10
2017-04-26T09:20:19.844Z,4.55
2017-04-26T09:21:20.214Z,3.13
2017-04-26T09:22:20.864Z,6.20
2017-04-26T09:23:20.454Z,7.24
2017-04-26T09:24:19.866Z,4.51
2017-04-26T09:25:19.387Z,6.73
2017-04-26T09:26:18.876Z,7.40
2017-04-26T09:27:20.310Z,3.33
2017-04-26T09:28:21.038Z,4.89
2017-04-26T09:29:20.465Z,6.95
2017-04-26T09:30:20.051Z,7.13
2017-04-26T09:31:19.505Z,2.50
2017-04-26T09:32:20.797Z,4.10
2017-04-26T09:33:20.222Z,5.41
2017-04-26T09:34:19.501Z,3.59
2017-04-26T09:35:19.006Z,6.55
2017-04-26T09:36:19.240Z,5.18
2017-04-26T09:37:19.560Z,3.02
2017-04-26T09:38:19.632Z,5.97
2017-04-26T09:39:20.389Z,3.71
2017-04-26T09:40:21.066Z,6.20
2017-04-26T09:41:20.414Z,4.46
2017-04-26T09:42:19.749Z,8.35
2017-04-26T09:43:31.498Z,8.58
2017-04-26T09:44:31.251Z,15.92
2017-04-26T09:45:31.091Z,4.29
2017-04-26T09:46:30.499Z,6.37
2017-04-26T09:47:30.082Z,8.56
2017-04-26T09:48:30.417Z,3.84
2017-04-26T09:49:29.850Z,4.21
2017-04-26T09:50:29.504Z,7.65
2017-04-26T09:51:40.197Z,4.04
2017-04-26T09:52:40.978Z,7.97
2017-04-26T09:53:41.144Z,8.82
2017-04-26T09:54:44.225Z,4.75
2017-04-26T09:55:43.722Z,3.87
2017-04-26T09:56:49.591Z,4.87
2017-04-26T09:57:49.826Z,5.33
2017-04-26T09:58:49.157Z,4.07
2017-04-26T09:59:49.481Z,4.64
2017-04-26T10:00:49.233Z,4.45
2017-04-26T10:01:49.360Z,3.42
2017-04-26T10:02:49.723Z,4.87
2017-04-26T10:03:50.100Z,4.35
2017-04-26T10:04:49.551Z,3.70
2017-04-26T10:05:49.573Z,5.67
2017-04-26T10:06:49.066Z,6.17
2017-04-26T10:07:48.584Z,3.11
2017-04-26T10:08:48.852Z,5.87
2017-04-26T10:09:48.595Z,3.21
2017-04-26T10:10:47.918Z,4.36
2017-04-26T10:11:49.185Z,4.37
2017-04-26T10:12:48.503Z,5.60
2017-04-26T10:13:49.692Z,5.49
2017-04-26T10:14:49.820Z,3.54
2017-04-26T10:16:59.420Z,7.20
2017-04-26T10:18:05.372Z,3.16
2017-04-26T10:19:08.410Z,3.79
2017-04-26T10:20:12.567Z,3.24
2017-04-26T10:21:11.961Z,3.99
2017-04-26T10:22:12.120Z,3.77
2017-04-26T10:23:18.193Z,6.71
2017-04-26T10:24:17.626Z,4.46
2017-04-26T10:25:17.733Z,6.43
2017-04-26T10:26:18.532Z,3.90
2017-04-26T10:27:17.807Z,4.96
2017-04-26T10:28:17.214Z,7.87
2017-04-26T10:29:17.370Z,4.77
2017-04-26T10:30:18.815Z,8.03
2017-04-26T10:31:16.313Z,2.27
2017-04-26T10:32:17.159Z,6.74
2017-04-26T10:33:17.161Z,5.24
2017-04-26T10:34:17.654Z,4.49
2017-04-26T10:35:17.789Z,2.70
2017-04-26T10:36:18.093Z,7.41
2017-04-26T10:37:18.098Z,3.53
2017-04-26T10:38:18.083Z,3.86
2017-04-26T10:39:17.321Z,4.09
2017-04-26T10:40:16.708Z,3.26
2017-04-26T10:41:16.397Z,2.54
2017-04-26T10:42:16.097Z,3.01
2017-04-26T10:43:15.460Z,3.29
2017-04-26T10:44:16.683Z,2.27
2017-04-26T10:45:20.829Z,3.36
2017-04-26T10:46:20.282Z,2.20
2017-04-26T10:47:25.654Z,3.46
2017-04-26T10:48:30.105Z,2.63
2017-04-26T10:49:29.919Z,3.70
2017-04-26T10:50:29.507Z,1.87
2017-04-26T10:51:28.825Z,2.64
2017-04-26T10:52:28.460Z,3.43
2017-04-26T10:53:27.865Z,3.86
2017-04-26T10:54:27.157Z,3.69
2017-04-26T10:55:26.424Z,4.93
2017-04-26T10:56:25.689Z,3.04
2017-04-26T10:57:25.081Z,7.56
2017-04-26T10:58:25.243Z,5.36
2017-04-26T10:59:25.189Z,1.77
2017-04-26T11:00:24.602Z,6.30
2017-04-26T11:01:23.891Z,3.96
2017-04-26T11:02:23.467Z,3.83
2017-04-26T11:03:22.970Z,3.17
2017-04-26T11:04:23.090Z,3.16
2017-04-26T11:05:22.701Z,2.09
2017-04-26T11:06:22.138Z,6.76
2017-04-26T11:07:21.544Z,3.21
2017-04-26T11:08:20.840Z,4.44
2017-04-26T11:09:20.148Z,1.86
2017-04-26T11:10:19.450Z,6.73
2017-04-26T11:11:18.801Z,4.62
2017-04-26T11:12:18.143Z,3.46
2017-04-26T11:13:17.489Z,5.20
2017-04-26T11:14:16.821Z,2.34
2017-04-26T11:15:16.108Z,4.66
2017-04-26T11:16:15.705Z,5.29
2017-04-26T11:17:15.056Z,4.76
2017-04-26T11:18:14.605Z,3.71
2017-04-26T11:19:14.697Z,4.67
2017-04-26T11:20:14.199Z,2.40
2017-04-26T11:21:14.361Z,6.57
2017-04-26T11:22:13.686Z,3.81
2017-04-26T11:23:13.656Z,2.13
2017-04-26T11:24:13.874Z,3.97
2017-04-26T11:25:13.181Z,2.57
2017-04-26T11:26:13.234Z,4.41
2017-04-26T11:27:12.618Z,3.73
2017-04-26T11:28:11.869Z,2.39
2017-04-26T11:29:11.850Z,7.17
2017-04-26T11:30:11.122Z,4.93
2017-04-26T11:31:10.557Z,5.14
2017-04-26T11:32:09.925Z,3.00
2017-04-26T11:33:09.241Z,3.51
2017-04-26T11:34:08.513Z,1.81
2017-04-26T11:35:07.953Z,4.93
2017-04-26T11:36:07.552Z,2.76
2017-04-26T11:37:06.840Z,3.23
2017-04-26T11:38:07.212Z,7.19
2017-04-26T11:39:06.528Z,3.36
2017-04-26T11:40:05.874Z,4.77
2017-04-26T11:41:06.074Z,2.91
2017-04-26T11:42:05.421Z,2.99
2017-04-26T11:43:05.476Z,2.41
2017-04-26T11:44:04.787Z,4.24
2017-04-26T11:45:04.007Z,3.16
2017-04-26T11:46:03.286Z,3.51
2017-04-26T11:47:03.339Z,1.89
2017-04-26T11:48:02.610Z,2.94
2017-04-26T11:49:02.740Z,4.36
2017-04-26T11:50:02.947Z,3.70
2017-04-26T11:51:02.952Z,1.83
2017-04-26T11:52:02.289Z,4.23
2017-04-26T11:53:01.590Z,3.23
2017-04-26T11:54:01.490Z,4.64
2017-04-26T11:55:02.231Z,5.20
2017-04-26T11:56:01.469Z,2.87
2017-04-26T11:57:01.676Z,1.89
2017-04-26T11:58:01.293Z,3.46
2017-04-26T11:59:00.697Z,3.07
2017-04-26T12:00:00.805Z,3.40
2017-04-26T12:01:00.041Z,3.26
2017-04-26T12:02:00.286Z,3.26
2017-04-26T12:02:59.590Z,3.27
2017-04-26T12:03:58.906Z,4.04
2017-04-26T12:04:58.315Z,4.36
2017-04-26T12:05:57.894Z,4.43
2017-04-26T12:06:57.350Z,4.31
2017-04-26T12:07:56.610Z,2.83
2017-04-26T12:08:56.479Z,2.66
2017-04-26T12:09:56.725Z,3.74
2017-04-26T12:10:56.964Z,1.80
2017-04-26T12:11:56.321Z,3.79
2017-04-26T12:12:55.761Z,2.63
2017-04-26T12:13:55.018Z,2.69
2017-04-26T12:14:54.425Z,7.07
2017-04-26T12:15:53.960Z,7.11
2017-04-26T12:16:53.473Z,4.93
2017-04-26T12:17:52.705Z,5.64
2017-04-26T12:18:51.889Z,3.31
2017-04-26T12:19:51.876Z,1.67
2017-04-26T12:20:51.249Z,1.87
2017-04-26T12:21:50.570Z,2.83
2017-04-26T12:22:49.728Z,3.43
2017-04-26T12:23:48.932Z,1.64
2017-04-26T12:24:48.117Z,1.41
2017-04-26T12:25:47.316Z,1.73
2017-04-26T12:26:46.589Z,1.89
2017-04-26T12:27:45.952Z,3.17
2017-04-26T12:28:45.141Z,3.17
2017-04-26T12:29:44.421Z,2.11
2017-04-26T12:30:44.395Z,2.57
2017-04-26T12:31:43.680Z,2.64
2017-04-26T12:32:42.901Z,2.56
2017-04-26T12:33:42.929Z,3.19
2017-04-26T12:34:42.133Z,5.00
2017-04-26T12:35:41.308Z,4.57
2017-04-26T12:36:40.747Z,4.56
2017-04-26T12:37:39.878Z,1.87
2017-04-26T12:38:39.011Z,5.19
2017-04-26T12:39:39.098Z,2.77
2017-04-26T12:40:38.243Z,2.63
2017-04-26T12:41:38.584Z,3.49
2017-04-26T12:42:37.757Z,1.23
2017-04-26T12:43:37.446Z,3.81
2017-04-26T12:44:36.881Z,3.50
2017-04-26T12:45:36.568Z,5.54
2017-04-26T12:46:36.085Z,3.90
2017-04-26T12:47:35.449Z,2.01
2017-04-26T12:48:34.893Z,3.63
2017-04-26T12:49:34.365Z,1.37
2017-04-26T12:50:33.509Z,1.46
2017-04-26T12:51:32.657Z,3.64
2017-04-26T12:52:32.126Z,3.37
2017-04-26T12:53:31.279Z,2.44
2017-04-26T12:54:30.445Z,3.03
2017-04-26T12:55:29.616Z,1.33
2017-04-26T12:56:28.813Z,2.29
2017-04-26T12:57:28.024Z,2.64
2017-04-26T12:58:27.214Z,2.40
2017-04-26T12:59:26.392Z,1.43
2017-04-26T13:00:25.564Z,1.91
2017-04-26T13:01:25.433Z,2.63
2017-04-26T13:02:24.628Z,3.67
2017-04-26T13:03:24.373Z,2.24
2017-04-26T13:04:23.581Z,1.46
2017-04-26T13:05:22.780Z,2.83
2017-04-26T13:06:22.011Z,4.19
2017-04-26T13:07:21.206Z,2.59
2017-04-26T13:08:20.368Z,3.04
2017-04-26T13:09:19.576Z,1.10
2017-04-26T13:10:18.936Z,2.94
2017-04-26T13:11:18.128Z,2.61
2017-04-26T13:12:17.364Z,2.66
2017-04-26T13:13:16.540Z,3.89